Time;durP1;ratioP1;P1;durP2;ratioP2;P2;SDS_P1;SDS_P2;PMS_P1;PMS_P2;Temp;Humidity;BMP_temperature;BMP_pressure;BME280_temperature;BME280_humidity;BME280_pressure;Samples;Min_cycle;Max_cycle;Signal;HPM_P1;HPM_P2
2022/07/06 00:02:35;;;;;;;3.50;3.20;;;;;;;;;;6028846;29;20073;-79
2022/07/06 00:05:37;;;;;;;3.75;3.30;;;;;;;;;;6008904;29;20105;-79
2022/07/06 00:08:39;;;;;;;5.43;3.65;;;;;;;;;;6027292;29;20049;-80
2022/07/06 00:11:40;;;;;;;4.30;3.90;;;;;;;;;;6018307;29;20088;-80
2022/07/06 00:14:42;;;;;;;4.07;3.60;;;;;;;;;;6011242;29;20094;-80
2022/07/06 00:17:44;;;;;;;4.15;3.75;;;;;;;;;;6025037;29;20069;-79
2022/07/06 00:20:46;;;;;;;4.10;3.80;;;;;;;;;;6023521;29;20049;-81
2022/07/06 00:23:47;;;;;;;4.35;3.85;;;;;;;;;;6021226;29;20053;-80
2022/07/06 00:26:49;;;;;;;7.05;4.57;;;;;;;;;;6006637;29;20079;-78
2022/07/06 00:29:50;;;;;;;5.00;3.95;;;;;;;;;;6017538;29;20182;-78
2022/07/06 00:32:52;;;;;;;4.05;3.65;;;;;;;;;;6023752;29;20065;-80
2022/07/06 00:35:54;;;;;;;4.53;3.67;;;;;;;;;;6007767;29;20053;-79
2022/07/06 00:38:55;;;;;;;5.28;3.97;;;;;;;;;;6010400;29;20060;-80
2022/07/06 00:41:57;;;;;;;4.30;3.83;;;;;;;;;;6026592;29;20141;-80
2022/07/06 00:44:59;;;;;;;4.30;3.90;;;;;;;;;;6026902;29;20053;-80
2022/07/06 00:48:01;;;;;;;5.35;4.20;;;;;;;;;;6028013;29;20049;-80
2022/07/06 00:51:03;;;;;;;4.10;3.80;;;;;;;;;;6007777;29;20045;-80
2022/07/06 00:54:05;;;;;;;4.75;4.35;;;;;;;;;;5996552;29;20714;-81
2022/07/06 00:57:07;;;;;;;4.55;3.90;;;;;;;;;;6008288;29;20045;-80
2022/07/06 01:00:11;;;;;;;4.47;4.00;;;;;;;;;;6014001;29;20078;-81
2022/07/06 01:03:12;;;;;;;6.53;4.10;;;;;;;;;;6016564;29;20057;-81
2022/07/06 01:06:15;;;;;;;7.05;4.00;;;;;;;;;;6014409;29;20041;-81
2022/07/06 01:09:17;;;;;;;4.18;3.78;;;;;;;;;;6011002;29;20053;-80
2022/07/06 01:12:19;;;;;;;4.72;4.32;;;;;;;;;;6031373;29;20056;-80
2022/07/06 01:15:24;;;;;;;4.78;3.90;;;;;;;;;;6001744;29;20943;-81
2022/07/06 01:18:27;;;;;;;4.30;3.90;;;;;;;;;;6016503;29;20677;-79
2022/07/06 01:21:28;;;;;;;4.72;3.70;;;;;;;;;;6012738;29;20057;-80
2022/07/06 01:24:30;;;;;;;5.05;4.63;;;;;;;;;;6005189;29;20053;-80
2022/07/06 01:27:38;;;;;;;4.50;4.10;;;;;;;;;;6013799;29;20143;-79
2022/07/06 01:30:40;;;;;;;4.65;3.75;;;;;;;;;;6015878;29;20045;-79
2022/07/06 01:38:29;;;;;;;6.32;4.28;;;;;;;;;;6028069;29;20049;-79
2022/07/06 01:41:31;;;;;;;4.93;4.43;;;;;;;;;;6031276;29;20114;-81
2022/07/06 01:44:34;;;;;;;5.55;4.30;;;;;;;;;;6014928;29;20577;-81
2022/07/06 01:47:36;;;;;;;5.00;4.40;;;;;;;;;;6030982;29;20052;-80
2022/07/06 01:50:38;;;;;;;4.60;4.20;;;;;;;;;;6016742;29;20052;-81
2022/07/06 01:53:40;;;;;;;4.60;3.90;;;;;;;;;;6014750;29;20042;-80
2022/07/06 01:56:43;;;;;;;4.88;4.10;;;;;;;;;;6018693;29;20049;-81
2022/07/06 01:59:44;;;;;;;4.55;3.90;;;;;;;;;;6019984;29;20082;-81
2022/07/06 02:02:47;;;;;;;5.32;4.13;;;;;;;;;;6020832;29;20061;-81
2022/07/06 02:05:49;;;;;;;4.72;4.20;;;;;;;;;;6017569;29;20110;-81
2022/07/06 02:08:51;;;;;;;4.38;3.67;;;;;;;;;;6020612;29;20050;-81
2022/07/06 02:11:54;;;;;;;4.90;3.60;;;;;;;;;;6020874;29;20121;-80
2022/07/06 02:14:55;;;;;;;5.18;4.00;;;;;;;;;;6015894;29;20540;-80
2022/07/06 02:17:57;;;;;;;5.38;4.03;;;;;;;;;;6019843;29;20057;-81
2022/07/06 02:20:58;;;;;;;6.30;4.00;;;;;;;;;;6014089;29;20046;-80
2022/07/06 02:24:01;;;;;;;4.50;4.10;;;;;;;;;;6033134;29;20046;-80
2022/07/06 02:27:04;;;;;;;4.90;4.40;;;;;;;;;;6019973;29;20048;-80
2022/07/06 02:30:06;;;;;;;5.50;4.20;;;;;;;;;;6013337;29;20338;-81
2022/07/06 02:33:08;;;;;;;4.68;4.28;;;;;;;;;;6019974;29;20045;-81
2022/07/06 02:36:11;;;;;;;6.80;4.63;;;;;;;;;;6000650;29;20041;-80
2022/07/06 02:39:13;;;;;;;6.30;4.55;;;;;;;;;;6031246;29;20064;-80
2022/07/06 02:42:14;;;;;;;6.18;4.55;;;;;;;;;;6017628;29;20061;-79
2022/07/06 02:45:16;;;;;;;5.78;4.65;;;;;;;;;;6015197;29;20434;-80
2022/07/06 02:48:21;;;;;;;5.88;4.47;;;;;;;;;;6015482;29;20759;-78
2022/07/06 02:51:25;;;;;;;5.80;4.43;;;;;;;;;;6013575;29;20588;-80
2022/07/06 02:54:26;;;;;;;5.63;4.20;;;;;;;;;;6016227;29;20232;-79
2022/07/06 02:57:29;;;;;;;6.10;4.33;;;;;;;;;;6011102;29;20053;-80
2022/07/06 03:00:31;;;;;;;5.80;4.22;;;;;;;;;;6014237;29;20064;-80
2022/07/06 03:03:33;;;;;;;5.00;3.97;;;;;;;;;;6030513;29;20122;-79
2022/07/06 03:06:35;;;;;;;4.43;4.03;;;;;;;;;;6014210;29;20049;-80
2022/07/06 03:09:37;;;;;;;5.45;4.03;;;;;;;;;;6016776;29;20060;-80
2022/07/06 03:12:38;;;;;;;4.47;4.07;;;;;;;;;;6015951;29;20049;-80
2022/07/06 03:15:40;;;;;;;6.28;3.92;;;;;;;;;;6002986;29;20052;-80
2022/07/06 03:18:43;;;;;;;;;;;;;;;;;;5998834;29;20190;-79
2022/07/06 03:21:46;;;;;;;7.03;4.95;;;;;;;;;;6009479;29;19928;-81
2022/07/06 03:24:49;;;;;;;7.07;5.47;;;;;;;;;;6016458;29;20065;-80
2022/07/06 03:27:51;;;;;;;7.10;5.53;;;;;;;;;;6027127;29;20064;-79
2022/07/06 03:30:54;;;;;;;5.90;5.30;;;;;;;;;;6015486;29;20049;-80
2022/07/06 03:33:57;;;;;;;;;;;;;;;;;;6018029;29;20049;-79
2022/07/06 03:36:59;;;;;;;7.85;4.95;;;;;;;;;;6028791;29;19960;-80
2022/07/06 03:40:01;;;;;;;9.07;5.32;;;;;;;;;;6014497;29;20048;-79
2022/07/06 03:43:03;;;;;;;6.88;5.22;;;;;;;;;;6015004;29;20686;-80
2022/07/06 03:46:09;;;;;;;8.10;4.82;;;;;;;;;;6014128;29;20276;-80
2022/07/06 03:49:10;;;;;;;6.63;4.82;;;;;;;;;;6032715;29;20147;-80
2022/07/06 03:52:15;;;;;;;5.55;4.88;;;;;;;;;;6016254;29;20071;-80
2022/07/06 03:55:24;;;;;;;4.97;4.47;;;;;;;;;;6012603;29;20049;-79
2022/07/06 03:58:32;;;;;;;7.43;5.28;;;;;;;;;;6015744;29;20045;-80
2022/07/06 04:01:34;;;;;;;7.95;6.38;;;;;;;;;;6013743;29;20053;-78
2022/07/06 04:04:36;;;;;;;8.05;6.60;;;;;;;;;;6016131;29;20102;-79
2022/07/06 04:07:38;;;;;;;6.57;5.38;;;;;;;;;;6015641;29;20097;-79
2022/07/06 04:10:41;;;;;;;7.03;4.65;;;;;;;;;;6016574;29;20057;-79
2022/07/06 04:13:43;;;;;;;6.50;5.80;;;;;;;;;;6008452;29;20069;-79
2022/07/06 04:16:44;;;;;;;6.40;5.80;;;;;;;;;;5987635;29;20521;-79
2022/07/06 04:19:46;;;;;;;6.35;5.13;;;;;;;;;;6008491;29;20046;-79
2022/07/06 04:22:49;;;;;;;6.07;4.70;;;;;;;;;;6007717;29;20052;-78
2022/07/06 04:25:51;;;;;;;5.67;5.07;;;;;;;;;;6027562;29;20237;-79
2022/07/06 04:28:54;;;;;;;5.20;4.53;;;;;;;;;;6008919;29;20045;-77
2022/07/06 04:31:57;;;;;;;5.57;4.18;;;;;;;;;;6004742;29;20482;-77
2022/07/06 04:34:59;;;;;;;5.80;4.35;;;;;;;;;;6007355;29;20382;-76
2022/07/06 04:38:00;;;;;;;9.30;4.20;;;;;;;;;;6020471;29;20041;-79
2022/07/06 04:41:03;;;;;;;7.47;4.18;;;;;;;;;;6007209;29;20046;-77
2022/07/06 04:44:05;;;;;;;5.32;4.28;;;;;;;;;;6006030;29;20061;-76
2022/07/06 04:47:07;;;;;;;5.97;4.85;;;;;;;;;;6006566;29;20053;-78
2022/07/06 04:50:09;;;;;;;6.63;4.32;;;;;;;;;;6004621;29;20173;-78
2022/07/06 04:53:11;;;;;;;6.78;4.72;;;;;;;;;;5990350;29;20045;-78
2022/07/06 04:56:13;;;;;;;4.85;4.38;;;;;;;;;;6008334;29;20109;-79
2022/07/06 04:59:15;;;;;;;6.70;4.80;;;;;;;;;;5990871;29;20069;-80
2022/07/06 05:02:18;;;;;;;;;;;;;;;;;;6008558;29;20046;-79
2022/07/06 05:05:20;;;;;;;8.20;4.32;;;;;;;;;;6008454;29;19924;-79
2022/07/06 05:08:24;;;;;;;7.07;4.35;;;;;;;;;;5994243;29;20061;-79
2022/07/06 05:11:27;;;;;;;6.43;4.07;;;;;;;;;;6009125;29;20057;-79
2022/07/06 05:14:30;;;;;;;5.90;3.97;;;;;;;;;;6004522;29;20049;-78
2022/07/06 05:17:31;;;;;;;11.90;5.20;;;;;;;;;;6008208;29;20049;-79
2022/07/06 05:20:35;;;;;;;6.70;3.75;;;;;;;;;;6007491;29;20514;-79
2022/07/06 05:23:38;;;;;;;9.52;4.03;;;;;;;;;;6007982;29;20057;-79
2022/07/06 05:26:41;;;;;;;11.60;3.70;;;;;;;;;;6014490;29;20510;-79
2022/07/06 05:29:43;;;;;;;5.60;3.58;;;;;;;;;;6014527;29;20049;-78
2022/07/06 05:32:46;;;;;;;10.65;3.70;;;;;;;;;;6017143;29;20124;-79
2022/07/06 05:35:48;;;;;;;5.15;3.55;;;;;;;;;;6010375;29;20529;-80
2022/07/06 05:38:54;;;;;;;8.80;4.10;;;;;;;;;;6012428;29;20066;-79
2022/07/06 05:41:57;;;;;;;5.15;3.75;;;;;;;;;;6013685;29;20612;-80
2022/07/06 05:44:59;;;;;;;5.20;3.13;;;;;;;;;;6000315;29;20117;-80
2022/07/06 05:51:23;;;;;;;5.00;3.40;;;;;;;;;;6034466;29;20053;-80
2022/07/06 05:54:26;;;;;;;6.78;3.22;;;;;;;;;;6013966;29;20053;-81
2022/07/06 05:57:28;;;;;;;8.60;3.22;;;;;;;;;;6018844;29;20050;-81
2022/07/06 06:00:30;;;;;;;5.57;3.60;;;;;;;;;;6011512;29;20049;-80
2022/07/06 06:03:37;;;;;;;7.45;3.17;;;;;;;;;;6032009;29;20052;-80
2022/07/06 06:06:39;;;;;;;5.60;3.35;;;;;;;;;;6002698;29;20056;-79
2022/07/06 06:09:41;;;;;;;5.88;3.10;;;;;;;;;;6001530;29;20054;-79
2022/07/06 06:12:44;;;;;;;3.75;3.10;;;;;;;;;;6014150;29;20069;-80
2022/07/06 06:15:46;;;;;;;;;;;;;;;;;;6013107;29;20058;-80
2022/07/06 06:18:49;;;;;;;4.57;2.92;;;;;;;;;;5996016;29;19932;-80
2022/07/06 06:21:51;;;;;;;4.85;2.97;;;;;;;;;;6027118;29;20049;-78
2022/07/06 06:24:53;;;;;;;5.68;3.00;;;;;;;;;;6018116;29;20623;-78
2022/07/06 06:27:54;;;;;;;4.15;2.95;;;;;;;;;;6021318;29;20121;-79
2022/07/06 06:30:56;;;;;;;3.67;2.63;;;;;;;;;;6020178;29;20078;-81
2022/07/06 06:33:58;;;;;;;5.53;2.60;;;;;;;;;;6039203;29;20057;-82
2022/07/06 06:36:59;;;;;;;4.32;2.78;;;;;;;;;;6022264;29;20061;-83
2022/07/06 06:40:02;;;;;;;5.53;2.88;;;;;;;;;;6021175;29;20065;-86
2022/07/06 06:43:04;;;;;;;2.85;2.65;;;;;;;;;;5997883;29;20053;-85
2022/07/06 06:46:09;;;;;;;5.38;2.70;;;;;;;;;;6005766;29;20576;-80
2022/07/06 06:49:11;;;;;;;6.45;2.70;;;;;;;;;;6023159;29;20045;-82
2022/07/06 06:52:13;;;;;;;6.40;2.60;;;;;;;;;;6009617;29;20111;-81
2022/07/06 06:55:35;;;;;;;3.15;2.50;;;;;;;;;;6031942;29;20065;-83
2022/07/06 06:58:36;;;;;;;5.30;2.63;;;;;;;;;;6016968;29;20924;-81
2022/07/06 07:01:58;;;;;;;4.30;2.80;;;;;;;;;;6021401;29;20056;-81
2022/07/06 07:05:00;;;;;;;3.85;2.30;;;;;;;;;;6029665;29;20156;-79
2022/07/06 07:08:02;;;;;;;5.43;2.60;;;;;;;;;;6013291;29;20069;-79
2022/07/06 07:11:06;;;;;;;5.57;2.40;;;;;;;;;;6002500;29;20528;-80
2022/07/06 07:14:07;;;;;;;3.88;2.38;;;;;;;;;;6030998;29;20097;-80
2022/07/06 07:17:10;;;;;;;3.25;1.95;;;;;;;;;;6032370;29;21226;-84
2022/07/06 07:20:12;;;;;;;4.90;2.33;;;;;;;;;;6000546;29;20065;-81
2022/07/06 07:23:14;;;;;;;2.58;1.70;;;;;;;;;;6030634;29;20093;-81
2022/07/06 07:26:16;;;;;;;4.80;1.80;;;;;;;;;;6014369;29;20125;-81
2022/07/06 07:29:18;;;;;;;3.33;2.10;;;;;;;;;;6028436;29;20132;-80
2022/07/06 07:32:20;;;;;;;2.75;1.90;;;;;;;;;;6014718;29;20189;-79
2022/07/06 07:35:23;;;;;;;2.10;1.75;;;;;;;;;;6028825;29;20049;-78
2022/07/06 07:38:24;;;;;;;;;;;;;;;;;;6012397;29;20084;-82
2022/07/06 07:41:27;;;;;;;3.67;1.73;;;;;;;;;;6016352;29;19931;-79
2022/07/06 07:44:28;;;;;;;3.17;2.20;;;;;;;;;;6031413;29;20451;-79
2022/07/06 07:47:30;;;;;;;2.53;1.70;;;;;;;;;;6008746;29;20065;-79
2022/07/06 07:50:32;;;;;;;3.67;2.00;;;;;;;;;;6022477;29;20053;-79
2022/07/06 07:53:34;;;;;;;2.53;1.70;;;;;;;;;;6027317;29;20110;-79
2022/07/06 07:56:36;;;;;;;4.50;1.70;;;;;;;;;;5990747;29;20062;-79
2022/07/06 07:59:37;;;;;;;1.90;1.60;;;;;;;;;;6024850;29;20738;-78
2022/07/06 08:02:39;;;;;;;2.47;1.80;;;;;;;;;;6005003;29;20042;-79
2022/07/06 08:05:41;;;;;;;4.25;1.70;;;;;;;;;;6013036;29;20076;-79
2022/07/06 08:08:43;;;;;;;3.28;1.77;;;;;;;;;;6013285;29;20113;-79
2022/07/06 08:11:45;;;;;;;4.53;1.80;;;;;;;;;;6015216;29;20050;-80
2022/07/06 08:14:46;;;;;;;3.65;1.60;;;;;;;;;;6014297;29;20061;-80
2022/07/06 08:17:48;;;;;;;3.22;1.45;;;;;;;;;;6015365;29;20182;-81
2022/07/06 08:20:50;;;;;;;2.05;1.80;;;;;;;;;;6014952;29;20065;-79
2022/07/06 08:24:11;;;;;;;3.13;1.90;;;;;;;;;;6015202;29;23169;-79
2022/07/06 08:27:13;;;;;;;9.05;1.70;;;;;;;;;;6000531;29;20695;-81
2022/07/06 08:30:15;;;;;;;4.43;1.63;;;;;;;;;;6018018;29;20095;-80
2022/07/06 08:33:16;;;;;;;7.85;2.55;;;;;;;;;;6017583;29;20086;-77
2022/07/06 08:36:19;;;;;;;15.32;5.97;;;;;;;;;;6008698;29;20285;-77
2022/07/06 08:39:20;;;;;;;22.88;6.70;;;;;;;;;;6019624;29;20543;-77
2022/07/06 08:42:28;;;;;;;10.52;4.43;;;;;;;;;;5994146;29;20129;-78
2022/07/06 08:45:30;;;;;;;13.55;4.63;;;;;;;;;;6002159;29;20536;-78
2022/07/06 08:48:36;;;;;;;3.72;2.25;;;;;;;;;;6018110;29;20056;-77
2022/07/06 08:51:38;;;;;;;5.05;2.40;;;;;;;;;;6018222;29;20056;-79
2022/07/06 08:54:40;;;;;;;4.22;2.28;;;;;;;;;;6021199;29;20545;-78
2022/07/06 08:57:45;;;;;;;3.67;1.90;;;;;;;;;;6019041;29;20605;-79
2022/07/06 09:00:46;;;;;;;5.40;2.10;;;;;;;;;;6020485;29;20045;-78
2022/07/06 09:03:50;;;;;;;2.75;1.92;;;;;;;;;;6021850;29;20045;-77
2022/07/06 09:06:54;;;;;;;3.55;2.08;;;;;;;;;;6018543;29;20094;-77
2022/07/06 09:09:58;;;;;;;3.85;1.40;;;;;;;;;;6003583;29;20551;-77
2022/07/06 09:13:05;;;;;;;4.07;1.83;;;;;;;;;;5998291;29;20135;-78
2022/07/06 09:16:14;;;;;;;2.85;1.70;;;;;;;;;;6005541;29;20125;-77
2022/07/06 09:19:36;;;;;;;3.15;1.30;;;;;;;;;;6006307;29;20046;-78
2022/07/06 09:22:39;;;;;;;2.40;1.33;;;;;;;;;;6007239;29;20128;-78
2022/07/06 09:25:40;;;;;;;3.28;1.40;;;;;;;;;;6005379;29;20136;-78
2022/07/06 09:28:46;;;;;;;2.23;1.00;;;;;;;;;;5991507;29;20133;-77
2022/07/06 09:32:02;;;;;;;1.77;1.00;;;;;;;;;;6013181;29;20167;-77
2022/07/06 09:35:04;;;;;;;4.32;1.88;;;;;;;;;;5987365;29;20054;-77
2022/07/06 09:38:11;;;;;;;4.30;1.27;;;;;;;;;;5997362;29;20124;-77
2022/07/06 09:41:12;;;;;;;1.27;1.08;;;;;;;;;;6015301;29;20050;-77
2022/07/06 09:44:26;;;;;;;3.60;1.13;;;;;;;;;;6014905;29;20050;-76
2022/07/06 09:47:27;;;;;;;2.95;1.08;;;;;;;;;;6020200;29;20094;-78
2022/07/06 09:50:37;;;;;;;1.60;1.10;;;;;;;;;;6019618;29;20058;-78
2022/07/06 09:53:40;;;;;;;1.90;1.23;;;;;;;;;;6025511;29;20105;-77
2022/07/06 09:56:50;;;;;;;1.15;1.10;;;;;;;;;;6014013;29;20205;-79
2022/07/06 09:59:52;;;;;;;2.40;1.27;;;;;;;;;;6013568;29;20081;-79
2022/07/06 10:02:54;;;;;;;2.10;1.10;;;;;;;;;;6023885;29;20557;-77
2022/07/06 10:05:57;;;;;;;4.30;1.30;;;;;;;;;;6026979;29;20049;-77
2022/07/06 10:08:59;;;;;;;2.70;1.30;;;;;;;;;;6026473;29;20077;-78
2022/07/06 10:12:03;;;;;;;3.45;1.50;;;;;;;;;;6014970;29;20640;-80
2022/07/06 10:15:05;;;;;;;2.20;1.30;;;;;;;;;;5998411;29;20084;-78
2022/07/06 10:18:09;;;;;;;3.25;1.40;;;;;;;;;;6031456;29;20082;-79
2022/07/06 10:21:11;;;;;;;2.13;1.10;;;;;;;;;;5998202;29;20707;-78
2022/07/06 10:24:14;;;;;;;1.65;1.20;;;;;;;;;;6030959;29;20060;-77
2022/07/06 10:27:16;;;;;;;2.65;1.27;;;;;;;;;;6006865;29;20108;-79
2022/07/06 10:30:18;;;;;;;2.78;1.10;;;;;;;;;;6025072;29;20170;-78
2022/07/06 10:33:20;;;;;;;1.38;1.10;;;;;;;;;;6028925;29;20046;-75
2022/07/06 10:36:29;;;;;;;1.63;1.05;;;;;;;;;;6011343;29;20053;-79
2022/07/06 10:42:58;;;;;;;1.75;0.90;;;;;;;;;;6028359;29;20836;-79
2022/07/06 10:46:05;;;;;;;3.20;0.95;;;;;;;;;;6024068;29;20049;-79
2022/07/06 10:49:16;;;;;;;2.17;1.42;;;;;;;;;;6012275;29;20084;-78
2022/07/06 10:52:58;;;;;;;3.35;1.50;;;;;;;;;;6025726;29;20057;-80
2022/07/06 10:56:07;;;;;;;3.22;1.30;;;;;;;;;;6022908;29;20500;-80
2022/07/06 10:59:11;;;;;;;2.92;1.45;;;;;;;;;;6014252;29;20131;-79
2022/07/06 11:02:14;;;;;;;2.67;1.30;;;;;;;;;;6032062;29;20100;-76
2022/07/06 11:05:34;;;;;;;;;;;;;;;;;;6015938;29;20046;-77
2022/07/06 11:08:58;;;;;;;1.58;1.00;;;;;;;;;;6029185;29;19924;-79
2022/07/06 11:12:12;;;;;;;2.00;1.23;;;;;;;;;;6015395;29;20425;-77
2022/07/06 11:15:46;;;;;;;3.47;1.17;;;;;;;;;;6023964;29;20077;-78
2022/07/06 11:18:58;;;;;;;1.55;0.95;;;;;;;;;;6008544;29;20073;-80
2022/07/06 11:22:09;;;;;;;2.33;1.30;;;;;;;;;;6030503;29;20045;-78
2022/07/06 11:25:11;;;;;;;3.35;1.27;;;;;;;;;;6029024;29;20568;-79
2022/07/06 11:28:15;;;;;;;3.85;1.30;;;;;;;;;;6014609;29;20046;-78
2022/07/06 11:31:17;;;;;;;3.95;1.20;;;;;;;;;;6012909;29;20098;-80
2022/07/06 11:34:24;;;;;;;1.63;1.17;;;;;;;;;;6007248;29;20044;-78
2022/07/06 11:37:26;;;;;;;1.70;1.30;;;;;;;;;;6029562;29;20060;-78
2022/07/06 11:40:29;;;;;;;2.10;1.38;;;;;;;;;;6030434;29;20053;-78
2022/07/06 11:43:31;;;;;;;2.03;1.30;;;;;;;;;;6025578;29;20117;-79
2022/07/06 11:46:34;;;;;;;2.60;1.53;;;;;;;;;;6029707;29;20045;-79
2022/07/06 11:49:37;;;;;;;2.88;1.40;;;;;;;;;;5999925;29;20052;-79
2022/07/06 11:52:39;;;;;;;1.73;1.40;;;;;;;;;;6013279;29;20052;-80
2022/07/06 11:55:41;;;;;;;1.50;1.40;;;;;;;;;;6014705;29;20110;-78
2022/07/06 11:58:46;;;;;;;2.65;1.50;;;;;;;;;;6016256;29;20137;-78
2022/07/06 12:01:48;;;;;;;2.28;1.30;;;;;;;;;;6011952;29;20127;-80
2022/07/06 12:04:50;;;;;;;2.00;1.40;;;;;;;;;;6014167;29;20061;-79
2022/07/06 12:08:06;;;;;;;5.63;1.80;;;;;;;;;;6024035;29;20049;-79
2022/07/06 12:11:08;;;;;;;1.98;1.40;;;;;;;;;;6029676;29;20465;-77
2022/07/06 12:14:18;;;;;;;2.10;1.65;;;;;;;;;;6030977;29;20140;-77
2022/07/06 12:17:19;;;;;;;2.35;1.45;;;;;;;;;;6010250;29;20049;-77
2022/07/06 12:20:21;;;;;;;2.05;1.65;;;;;;;;;;6025774;29;20071;-79
2022/07/06 12:23:24;;;;;;;;;;;;;;;;;;6027863;29;20057;-78
2022/07/06 12:26:29;;;;;;;4.05;1.63;;;;;;;;;;6003632;29;20427;-79
2022/07/06 12:29:31;;;;;;;2.00;1.75;;;;;;;;;;6027399;29;20049;-78
2022/07/06 12:32:36;;;;;;;4.38;1.70;;;;;;;;;;6026443;29;20140;-77
2022/07/06 12:35:37;;;;;;;2.00;1.63;;;;;;;;;;6008061;29;20072;-77
2022/07/06 12:38:47;;;;;;;3.43;1.60;;;;;;;;;;6028345;29;20080;-77
2022/07/06 12:41:51;;;;;;;1.95;1.50;;;;;;;;;;6029113;29;21835;-79
2022/07/06 12:44:53;;;;;;;3.20;1.50;;;;;;;;;;6010593;29;20249;-79
2022/07/06 12:48:01;;;;;;;2.70;1.90;;;;;;;;;;5995045;29;20128;-79
2022/07/06 12:51:02;;;;;;;3.70;1.70;;;;;;;;;;6023849;29;20125;-80
2022/07/06 12:54:14;;;;;;;2.30;1.90;;;;;;;;;;6010377;29;20121;-77
2022/07/06 12:57:18;;;;;;;2.17;1.90;;;;;;;;;;6024782;29;20037;-78
2022/07/06 13:00:21;;;;;;;1.75;1.65;;;;;;;;;;6024788;29;20061;-78
2022/07/06 13:03:23;;;;;;;3.13;2.08;;;;;;;;;;5997713;29;20127;-76
2022/07/06 13:06:37;;;;;;;5.10;2.22;;;;;;;;;;6022867;29;20057;-77
2022/07/06 13:09:38;;;;;;;4.43;1.90;;;;;;;;;;6006652;29;20497;-78
2022/07/06 13:12:40;;;;;;;4.43;1.77;;;;;;;;;;6006761;29;20132;-79
2022/07/06 13:15:42;;;;;;;1.65;1.55;;;;;;;;;;6006218;29;20235;-77
2022/07/06 13:18:44;;;;;;;2.58;1.73;;;;;;;;;;6009574;29;20069;-78
2022/07/06 13:21:45;;;;;;;3.53;1.67;;;;;;;;;;5992539;29;20128;-79
2022/07/06 13:24:47;;;;;;;2.20;1.67;;;;;;;;;;6024729;29;20041;-78
2022/07/06 13:27:49;;;;;;;2.70;1.63;;;;;;;;;;6006310;29;20045;-78
2022/07/06 13:30:50;;;;;;;3.58;1.70;;;;;;;;;;6005354;29;20049;-78
2022/07/06 13:33:52;;;;;;;3.25;1.70;;;;;;;;;;6023724;29;20170;-78
2022/07/06 13:36:53;;;;;;;2.20;1.50;;;;;;;;;;6023550;29;20410;-78
2022/07/06 13:39:56;;;;;;;2.10;1.77;;;;;;;;;;6022653;29;20046;-78
2022/07/06 13:42:57;;;;;;;1.92;1.70;;;;;;;;;;6011584;29;20394;-78
2022/07/06 13:45:59;;;;;;;3.33;1.50;;;;;;;;;;6028531;29;20086;-78
2022/07/06 13:49:01;;;;;;;4.75;1.60;;;;;;;;;;6026851;29;20680;-79
2022/07/06 13:52:03;;;;;;;2.50;1.77;;;;;;;;;;6024611;29;20136;-79
2022/07/06 13:55:06;;;;;;;2.95;1.48;;;;;;;;;;6027571;29;20045;-77
2022/07/06 13:58:08;;;;;;;;;;;;;;;;;;6011759;29;20053;-78
2022/07/06 14:01:10;;;;;;;4.38;1.48;;;;;;;;;;6011047;29;20023;-78
2022/07/06 14:04:19;;;;;;;3.60;1.40;;;;;;;;;;6014747;29;20057;-78
2022/07/06 14:07:20;;;;;;;1.80;1.60;;;;;;;;;;6025773;29;20578;-76
2022/07/06 14:10:22;;;;;;;2.50;1.73;;;;;;;;;;6028907;29;20120;-79
2022/07/06 14:13:24;;;;;;;2.03;1.30;;;;;;;;;;6030433;29;20105;-79
2022/07/06 14:16:27;;;;;;;2.35;1.23;;;;;;;;;;6010341;29;20061;-78
2022/07/06 14:19:29;;;;;;;3.53;1.45;;;;;;;;;;6012784;29;20061;-76
2022/07/06 14:22:32;;;;;;;1.35;1.25;;;;;;;;;;6007381;29;20053;-77
2022/07/06 14:25:33;;;;;;;2.17;1.52;;;;;;;;;;6030029;29;20146;-77
2022/07/06 14:28:35;;;;;;;3.22;1.50;;;;;;;;;;6012310;29;20073;-78
2022/07/06 14:31:37;;;;;;;3.95;1.75;;;;;;;;;;6012367;29;20178;-79
2022/07/06 14:34:39;;;;;;;1.80;1.70;;;;;;;;;;6014083;29;20515;-79
2022/07/06 14:37:40;;;;;;;2.75;1.75;;;;;;;;;;6009050;29;20118;-80
2022/07/06 14:40:42;;;;;;;2.90;1.95;;;;;;;;;;6030542;29;20122;-79
2022/07/06 14:43:45;;;;;;;1.90;1.80;;;;;;;;;;6030920;29;20133;-79
2022/07/06 14:46:47;;;;;;;3.47;1.70;;;;;;;;;;6010439;29;20643;-77
2022/07/06 14:49:50;;;;;;;2.15;1.67;;;;;;;;;;6009472;29;20099;-80
2022/07/06 14:52:53;;;;;;;3.17;2.00;;;;;;;;;;6028471;29;20160;-80
2022/07/06 14:55:54;;;;;;;1.85;1.73;;;;;;;;;;6023731;29;20181;-79
2022/07/06 14:58:56;;;;;;;4.20;1.80;;;;;;;;;;6025766;29;20109;-78
2022/07/06 15:02:18;;;;;;;4.05;2.08;;;;;;;;;;6024922;29;20498;-76
2022/07/06 15:05:19;;;;;;;5.68;2.28;;;;;;;;;;6009134;29;20527;-78
2022/07/06 15:08:21;;;;;;;3.47;2.20;;;;;;;;;;6012638;29;20545;-78
2022/07/06 15:11:23;;;;;;;3.50;2.15;;;;;;;;;;6013148;29;20049;-80
2022/07/06 15:14:24;;;;;;;2.13;1.83;;;;;;;;;;6031635;29;20125;-78
2022/07/06 15:17:27;;;;;;;2.80;2.00;;;;;;;;;;6029383;29;20125;-80
2022/07/06 15:20:28;;;;;;;;;;;;;;;;;;6009266;29;20518;-76
2022/07/06 15:23:30;;;;;;;3.03;2.42;;;;;;;;;;6016853;29;20064;-79
2022/07/06 15:26:32;;;;;;;2.95;2.10;;;;;;;;;;5999400;29;20053;-78
2022/07/06 15:29:34;;;;;;;2.77;2.50;;;;;;;;;;6001585;29;20052;-78
2022/07/06 15:32:36;;;;;;;3.10;2.22;;;;;;;;;;6018837;29;20124;-79
2022/07/06 15:35:37;;;;;;;2.55;2.08;;;;;;;;;;6012356;29;20058;-76
2022/07/06 15:38:39;;;;;;;3.40;2.22;;;;;;;;;;6007932;29;20095;-78
2022/07/06 15:41:41;;;;;;;3.33;2.10;;;;;;;;;;6012083;29;20065;-77
2022/07/06 15:44:42;;;;;;;3.03;1.95;;;;;;;;;;6017731;29;20779;-79
2022/07/06 15:47:44;;;;;;;3.35;1.90;;;;;;;;;;6015406;29;20073;-78
2022/07/06 15:50:46;;;;;;;2.30;2.10;;;;;;;;;;6024391;29;20046;-79
2022/07/06 15:53:47;;;;;;;3.03;1.90;;;;;;;;;;6030747;29;20052;-79
2022/07/06 15:56:49;;;;;;;3.58;1.88;;;;;;;;;;6024200;29;20443;-78
2022/07/06 15:59:51;;;;;;;2.03;1.60;;;;;;;;;;6008039;29;20109;-76
2022/07/06 16:02:53;;;;;;;2.60;2.00;;;;;;;;;;6029430;29;20061;-76
2022/07/06 16:05:55;;;;;;;1.60;1.50;;;;;;;;;;6008057;29;20110;-78
2022/07/06 16:09:12;;;;;;;1.83;1.73;;;;;;;;;;6026858;29;20541;-78
2022/07/06 16:12:14;;;;;;;2.95;1.80;;;;;;;;;;6012133;29;20476;-78
2022/07/06 16:15:15;;;;;;;3.90;1.70;;;;;;;;;;6019978;29;20049;-76
2022/07/06 16:18:17;;;;;;;2.37;1.60;;;;;;;;;;6026900;29;20078;-79
2022/07/06 16:21:19;;;;;;;1.60;1.50;;;;;;;;;;6025114;29;20068;-76
2022/07/06 16:24:21;;;;;;;1.60;1.43;;;;;;;;;;6004004;29;20466;-77
2022/07/06 16:27:22;;;;;;;3.38;1.60;;;;;;;;;;6003490;29;20442;-76
2022/07/06 16:30:25;;;;;;;3.13;1.70;;;;;;;;;;6013687;29;20433;-79
2022/07/06 16:33:26;;;;;;;2.38;1.60;;;;;;;;;;5996694;29;20060;-76
2022/07/06 16:36:29;;;;;;;5.88;2.00;;;;;;;;;;6017036;29;20061;-76
2022/07/06 16:39:30;;;;;;;1.60;1.50;;;;;;;;;;6036513;29;20069;-81
2022/07/06 16:42:32;;;;;;;2.30;1.55;;;;;;;;;;6010202;29;20061;-78
2022/07/06 16:45:33;;;;;;;1.77;1.58;;;;;;;;;;6003388;29;20202;-80
2022/07/06 16:48:35;;;;;;;3.00;1.57;;;;;;;;;;6024831;29;20057;-75
2022/07/06 16:51:37;;;;;;;1.63;1.42;;;;;;;;;;6025485;29;20126;-77
2022/07/06 16:54:38;;;;;;;1.10;1.05;;;;;;;;;;6009280;29;20694;-79
2022/07/06 16:57:42;;;;;;;1.77;1.45;;;;;;;;;;6003868;29;20065;-78
2022/07/06 17:00:44;;;;;;;3.90;1.60;;;;;;;;;;5999074;29;20049;-77
2022/07/06 17:03:46;;;;;;;2.13;1.40;;;;;;;;;;6025517;29;20053;-77
2022/07/06 17:06:48;;;;;;;2.85;1.88;;;;;;;;;;6026983;29;20052;-79
2022/07/06 17:09:50;;;;;;;2.70;1.80;;;;;;;;;;6025894;29;20140;-80
2022/07/06 17:12:55;;;;;;;3.83;1.75;;;;;;;;;;6018009;29;20049;-77
2022/07/06 17:15:57;;;;;;;1.60;1.50;;;;;;;;;;6018436;29;20583;-77
2022/07/06 17:18:59;;;;;;;3.20;1.55;;;;;;;;;;6017849;29;20196;-79
2022/07/06 17:22:00;;;;;;;3.70;1.80;;;;;;;;;;6016777;29;20053;-79
2022/07/06 17:25:07;;;;;;;2.17;1.58;;;;;;;;;;6029747;29;20049;-80
2022/07/06 17:28:08;;;;;;;2.38;1.55;;;;;;;;;;6031596;29;20049;-79
2022/07/06 17:31:10;;;;;;;1.70;1.50;;;;;;;;;;6033335;29;20057;-78
2022/07/06 17:34:12;;;;;;;1.67;1.58;;;;;;;;;;6008243;29;20049;-80
2022/07/06 17:37:14;;;;;;;2.65;1.65;;;;;;;;;;6033748;29;20049;-79
2022/07/06 17:40:15;;;;;;;3.92;1.85;;;;;;;;;;6035641;29;20117;-79
2022/07/06 17:43:17;;;;;;;3.83;1.73;;;;;;;;;;6019488;29;20130;-78
2022/07/06 17:46:19;;;;;;;2.78;1.90;;;;;;;;;;6033855;29;20145;-78
2022/07/06 17:49:21;;;;;;;3.65;2.00;;;;;;;;;;6035008;29;20061;-79
2022/07/06 17:52:23;;;;;;;2.78;1.85;;;;;;;;;;6032707;29;20730;-77
2022/07/06 17:55:25;;;;;;;2.40;1.95;;;;;;;;;;6025208;29;20058;-77
2022/07/06 17:58:26;;;;;;;3.20;2.15;;;;;;;;;;6016631;29;20502;-79
2022/07/06 18:01:28;;;;;;;2.85;2.03;;;;;;;;;;6031954;29;20089;-77
2022/07/06 18:04:30;;;;;;;2.70;2.00;;;;;;;;;;6000945;29;20049;-77
2022/07/06 18:07:32;;;;;;;2.33;2.10;;;;;;;;;;6027669;29;20050;-78
2022/07/06 18:10:34;;;;;;;4.18;2.30;;;;;;;;;;6035148;29;20620;-78
2022/07/06 18:13:36;;;;;;;2.13;2.03;;;;;;;;;;6012173;29;20155;-78
2022/07/06 18:16:39;;;;;;;2.77;2.13;;;;;;;;;;6017176;29;20162;-78
2022/07/06 18:19:41;;;;;;;3.50;2.28;;;;;;;;;;6035752;29;20127;-77
2022/07/06 18:22:44;;;;;;;2.73;1.93;;;;;;;;;;6032309;29;20042;-77
2022/07/06 18:25:46;;;;;;;2.35;1.83;;;;;;;;;;6018376;29;20069;-78
2022/07/06 18:28:48;;;;;;;3.33;1.93;;;;;;;;;;6032722;29;20133;-77
2022/07/06 18:31:52;;;;;;;1.75;1.60;;;;;;;;;;6027204;29;20041;-79
2022/07/06 18:34:56;;;;;;;3.35;1.92;;;;;;;;;;6029931;29;20056;-78